Atlantic Beach, North Carolina
Current Conditions -  °F | °C
As of 12:58 AM on Sunday 21 Dec 2014 (Local Time) from KMRH Reporting Station
Overcast Overcast  
Wind Chill: 37°   Ceiling: 6500
Heat Index: 41°   Visibility: 10mi
Dew Point: 37°   Wind: 6mph
Humidity: 86%   Direction: 20°NNE
Pressure: 30.25"   Gusts: NA
Location:  34.7°N, 76.74°W
Report Text: KMRH 210558Z AUTO 02005KT 10SM OVC065 05/03 A3025 RMK AO2 SLP243 I1000 I6/// T00500028 10050 20044 58006 TSNO
Loading
Personal Weather Stations






























Interactive Weather Map New forecast layout! Learn more

10-Day Weather Forecast

Advertisements
Track Severe Weather on mobile